createdAt,value
2018-03-16T00:01:24.868Z,2.96
2018-03-16T00:03:52.483Z,2.94
2018-03-16T00:06:20.855Z,2.89
2018-03-16T00:08:48.476Z,2.91
2018-03-16T00:11:16.073Z,2.83
2018-03-16T00:13:43.660Z,2.87
2018-03-16T00:16:11.250Z,2.86
2018-03-16T00:18:39.610Z,2.81
2018-03-16T00:21:08.068Z,2.92
2018-03-16T00:23:35.649Z,2.83
2018-03-16T00:26:03.278Z,2.89
2018-03-16T00:28:31.643Z,2.91
2018-03-16T00:30:59.963Z,2.84
2018-03-16T00:33:28.242Z,2.82
2018-03-16T00:35:56.590Z,2.84
2018-03-16T00:38:24.203Z,2.87
2018-03-16T00:40:51.818Z,2.81
2018-03-16T00:43:20.282Z,2.77
2018-03-16T00:45:48.567Z,2.78
2018-03-16T00:48:16.969Z,2.79
2018-03-16T00:50:44.554Z,2.75
2018-03-16T00:53:12.965Z,2.77
2018-03-16T00:55:41.239Z,2.74
2018-03-16T00:58:08.822Z,2.73
2018-03-16T01:00:36.403Z,2.73
2018-03-16T01:03:04.020Z,2.66
2018-03-16T01:05:32.516Z,2.59
2018-03-16T01:08:00.863Z,2.72
2018-03-16T01:10:28.854Z,2.67
2018-03-16T01:12:57.274Z,2.71
2018-03-16T01:15:24.857Z,2.68
2018-03-16T01:17:53.283Z,2.61
2018-03-16T01:20:20.862Z,2.64
2018-03-16T01:22:49.343Z,2.62
2018-03-16T01:25:16.924Z,2.58
2018-03-16T01:27:44.510Z,2.58
2018-03-16T01:30:12.795Z,2.61
2018-03-16T01:32:40.375Z,2.70
2018-03-16T01:35:07.976Z,2.70
2018-03-16T01:37:35.551Z,2.57
2018-03-16T01:40:03.172Z,2.64
2018-03-16T01:42:30.751Z,2.58
2018-03-16T01:44:58.333Z,2.60
2018-03-16T01:47:25.919Z,2.62
2018-03-16T01:49:53.498Z,2.54
2018-03-16T01:52:21.082Z,2.52
2018-03-16T01:54:48.668Z,2.48
2018-03-16T01:57:16.283Z,2.55
2018-03-16T01:59:43.868Z,2.51
2018-03-16T02:02:11.453Z,2.42
2018-03-16T02:04:39.039Z,2.50
2018-03-16T02:07:06.619Z,2.49
2018-03-16T02:09:34.206Z,2.48
2018-03-16T02:12:01.791Z,2.35
2018-03-16T02:14:29.396Z,2.39
2018-03-16T02:16:56.974Z,2.44
2018-03-16T02:19:24.593Z,2.39
2018-03-16T02:21:52.175Z,2.35
2018-03-16T02:24:19.790Z,2.38
2018-03-16T02:26:47.424Z,2.39
2018-03-16T02:29:15.002Z,2.38
2018-03-16T02:31:43.362Z,2.39
2018-03-16T02:34:10.950Z,2.38
2018-03-16T02:36:38.571Z,2.30
2018-03-16T02:39:06.176Z,2.27
2018-03-16T02:41:34.529Z,2.29
2018-03-16T02:44:02.113Z,2.19
2018-03-16T02:46:30.577Z,2.25
2018-03-16T02:48:58.157Z,2.22
2018-03-16T02:51:25.736Z,2.18
2018-03-16T02:53:54.099Z,2.14
2018-03-16T02:56:21.729Z,2.16
2018-03-16T02:58:49.304Z,2.07
2018-03-16T03:01:16.890Z,2.04
2018-03-16T03:03:44.491Z,2.03
2018-03-16T03:06:12.076Z,2.13
2018-03-16T03:08:39.666Z,2.14
2018-03-16T03:11:07.249Z,2.12
2018-03-16T03:13:35.738Z,2.15
2018-03-16T03:16:03.324Z,2.03
2018-03-16T03:18:30.919Z,2.07
2018-03-16T03:20:58.498Z,2.11
2018-03-16T03:23:26.083Z,2.12
2018-03-16T03:25:53.659Z,1.96
2018-03-16T03:28:22.191Z,1.97
2018-03-16T03:30:49.777Z,2.01
2018-03-16T03:33:18.139Z,2.05
2018-03-16T03:35:46.613Z,2.15
2018-03-16T03:38:14.199Z,2.02
2018-03-16T03:40:41.781Z,2.07
2018-03-16T03:43:10.138Z,2.07
2018-03-16T03:45:37.797Z,2.05
2018-03-16T03:48:05.371Z,2.01
2018-03-16T03:50:32.983Z,2.01
2018-03-16T03:53:00.562Z,2.02
2018-03-16T03:55:28.186Z,1.96
2018-03-16T03:57:55.769Z,2.02
2018-03-16T04:00:23.387Z,1.99
2018-03-16T04:02:50.970Z,1.99
2018-03-16T04:05:18.588Z,1.96
2018-03-16T04:07:46.171Z,1.94
2018-03-16T04:10:14.533Z,1.96
2018-03-16T04:12:42.119Z,1.93
2018-03-16T04:15:09.695Z,1.85
2018-03-16T04:17:37.965Z,1.87
2018-03-16T04:20:06.360Z,1.93
2018-03-16T04:22:34.271Z,1.90
2018-03-16T04:25:02.628Z,1.91
2018-03-16T04:27:30.222Z,1.87
2018-03-16T04:29:57.837Z,1.85
2018-03-16T04:32:26.339Z,1.90
2018-03-16T04:34:53.921Z,1.89
2018-03-16T04:37:22.425Z,1.84
2018-03-16T04:39:50.069Z,1.91
2018-03-16T04:42:18.435Z,1.75
2018-03-16T04:44:46.024Z,1.79
2018-03-16T04:47:14.439Z,1.78
2018-03-16T04:49:42.819Z,1.79
2018-03-16T04:52:11.140Z,1.90
2018-03-16T04:54:38.723Z,1.78
2018-03-16T04:57:06.348Z,1.73
2018-03-16T04:59:34.638Z,1.70
2018-03-16T05:02:02.219Z,1.72
2018-03-16T05:04:30.618Z,1.71
2018-03-16T05:06:58.198Z,1.66
2018-03-16T05:09:26.579Z,1.69
2018-03-16T05:11:54.868Z,1.56
2018-03-16T05:14:22.455Z,1.70
2018-03-16T05:16:50.037Z,1.62
2018-03-16T05:19:17.623Z,1.62
2018-03-16T05:21:45.205Z,1.62
2018-03-16T05:24:13.683Z,1.53
2018-03-16T05:26:42.068Z,1.48
2018-03-16T05:29:09.650Z,1.53
2018-03-16T05:31:37.241Z,1.45
2018-03-16T05:34:04.861Z,1.51
2018-03-16T05:36:32.448Z,1.45
2018-03-16T05:39:00.731Z,1.36
2018-03-16T05:41:29.155Z,1.33
2018-03-16T05:43:56.741Z,1.40
2018-03-16T05:46:24.355Z,1.35
2018-03-16T05:48:51.940Z,1.39
2018-03-16T05:51:20.297Z,1.42
2018-03-16T05:53:47.879Z,1.42
2018-03-16T05:56:15.460Z,1.42
2018-03-16T05:58:43.044Z,1.30
2018-03-16T06:01:10.663Z,1.27
2018-03-16T06:03:38.938Z,1.33
2018-03-16T06:06:06.553Z,1.29
2018-03-16T06:08:34.171Z,1.29
2018-03-16T06:11:01.775Z,1.14
2018-03-16T06:13:30.136Z,1.24
2018-03-16T06:15:57.776Z,1.15
2018-03-16T06:18:25.366Z,1.12
2018-03-16T06:20:52.962Z,1.11
2018-03-16T06:23:21.327Z,1.10
2018-03-16T06:25:48.917Z,1.10
2018-03-16T06:28:16.510Z,1.09
2018-03-16T06:30:44.104Z,1.10
2018-03-16T06:33:11.686Z,1.09
2018-03-16T06:35:39.280Z,1.16
2018-03-16T06:38:07.751Z,1.03
2018-03-16T06:40:35.351Z,1.07
2018-03-16T06:43:02.971Z,1.13
2018-03-16T06:45:30.549Z,1.18
2018-03-16T06:47:58.847Z,1.17
2018-03-16T06:50:26.451Z,1.21
2018-03-16T06:52:54.031Z,1.14
2018-03-16T06:55:21.619Z,1.16
2018-03-16T06:57:49.218Z,1.19
2018-03-16T07:00:16.800Z,1.08
2018-03-16T07:02:44.380Z,1.11
2018-03-16T07:05:11.972Z,1.06
2018-03-16T07:07:39.559Z,1.10
2018-03-16T07:10:08.750Z,1.07
2018-03-16T07:12:36.363Z,1.06
2018-03-16T07:15:15.576Z,1.11
2018-03-16T07:17:44.165Z,1.06
2018-03-16T07:20:11.748Z,1.16
2018-03-16T07:22:39.331Z,1.22
2018-03-16T07:25:06.926Z,1.08
2018-03-16T07:27:34.515Z,1.07
2018-03-16T07:30:03.003Z,1.04
2018-03-16T07:32:30.894Z,1.09
2018-03-16T07:34:58.489Z,1.14
2018-03-16T07:37:26.104Z,1.22
2018-03-16T07:39:53.692Z,1.28
2018-03-16T07:42:21.280Z,1.24
2018-03-16T07:44:49.642Z,1.22
2018-03-16T07:47:17.259Z,1.18
2018-03-16T07:49:44.879Z,1.16
2018-03-16T07:52:13.380Z,1.18
2018-03-16T07:54:40.997Z,1.10
2018-03-16T07:57:08.576Z,1.07
2018-03-16T07:59:36.165Z,1.04
2018-03-16T08:02:04.600Z,1.09
2018-03-16T08:04:32.886Z,1.01
2018-03-16T08:07:01.294Z,1.36
2018-03-16T08:12:03.292Z,1.44
2018-03-16T08:14:31.792Z,1.47
2018-03-16T08:17:00.191Z,1.42
2018-03-16T08:19:28.578Z,1.47
2018-03-16T08:21:56.864Z,1.39
2018-03-16T08:24:25.247Z,1.41
2018-03-16T08:26:52.825Z,1.22
2018-03-16T08:29:20.447Z,1.44
2018-03-16T08:31:48.029Z,1.37
2018-03-16T08:34:15.615Z,1.04
2018-03-16T08:36:43.211Z,1.14
2018-03-16T08:39:10.806Z,1.15
2018-03-16T08:41:38.402Z,1.01
2018-03-16T08:44:05.979Z,0.95
2018-03-16T08:46:33.675Z,0.86
2018-03-16T08:49:02.034Z,0.97
2018-03-16T08:51:30.459Z,0.91
2018-03-16T08:53:58.935Z,0.97
2018-03-16T08:56:27.374Z,0.99
2018-03-16T08:58:55.745Z,0.90
2018-03-16T09:01:24.040Z,1.01
2018-03-16T09:03:51.671Z,0.95
2018-03-16T09:06:19.967Z,0.96
2018-03-16T09:08:48.367Z,1.00
2018-03-16T09:11:16.836Z,0.90
2018-03-16T09:13:44.475Z,0.91
2018-03-16T09:16:12.064Z,0.91
2018-03-16T09:18:39.696Z,0.91
2018-03-16T09:21:07.414Z,0.84
2018-03-16T09:23:35.191Z,0.81
2018-03-16T09:26:02.874Z,0.89
2018-03-16T09:28:31.284Z,0.92
2018-03-16T09:30:58.923Z,0.86
2018-03-16T09:33:26.515Z,0.91
2018-03-16T09:35:54.123Z,0.90
2018-03-16T09:38:21.707Z,1.02
2018-03-16T09:40:49.305Z,1.00
2018-03-16T09:43:16.891Z,1.09
2018-03-16T09:45:45.157Z,1.19
2018-03-16T09:48:13.531Z,1.05
2018-03-16T09:50:41.855Z,1.05
2018-03-16T09:53:09.419Z,1.05
2018-03-16T09:55:42.394Z,0.99
2018-03-16T09:58:10.882Z,1.06
2018-03-16T10:00:38.468Z,0.95
2018-03-16T10:03:06.884Z,0.95
2018-03-16T10:05:35.182Z,0.88
2018-03-16T10:08:02.763Z,0.95
2018-03-16T10:10:30.360Z,0.94
2018-03-16T10:12:57.941Z,0.86
2018-03-16T10:15:25.554Z,0.78
2018-03-16T10:17:53.200Z,0.77
2018-03-16T10:20:21.568Z,0.72
2018-03-16T10:22:49.166Z,0.74
2018-03-16T10:25:16.750Z,0.78
2018-03-16T10:27:45.224Z,0.78
2018-03-16T10:30:12.815Z,0.78
2018-03-16T10:32:41.669Z,0.74
2018-03-16T10:35:10.196Z,0.72
2018-03-16T10:37:37.779Z,0.63
2018-03-16T10:40:06.138Z,0.68
2018-03-16T10:42:33.723Z,0.70
2018-03-16T10:45:02.267Z,0.56
2018-03-16T10:47:29.854Z,0.61
2018-03-16T10:49:58.142Z,0.54
2018-03-16T10:52:26.506Z,0.50
2018-03-16T10:54:54.770Z,0.55
2018-03-16T10:57:23.147Z,0.58
2018-03-16T10:59:51.546Z,0.52
2018-03-16T11:02:20.042Z,0.55
2018-03-16T11:04:53.040Z,0.63
2018-03-16T11:07:21.538Z,0.67
2018-03-16T11:09:49.168Z,0.67
2018-03-16T11:12:17.676Z,0.61
2018-03-16T11:14:46.044Z,0.50
2018-03-16T11:17:14.475Z,0.54
2018-03-16T11:19:42.861Z,0.56
2018-03-16T11:22:11.191Z,0.65
2018-03-16T11:24:39.571Z,0.72
2018-03-16T11:27:07.248Z,0.67
2018-03-16T11:29:34.864Z,0.68
2018-03-16T11:32:02.439Z,0.59
2018-03-16T11:34:30.024Z,0.67
2018-03-16T11:36:58.444Z,0.74
2018-03-16T11:39:26.930Z,0.82
2018-03-16T11:41:54.514Z,0.63
2018-03-16T11:44:22.103Z,0.64
2018-03-16T11:46:49.692Z,0.71
2018-03-16T11:49:17.312Z,0.76
2018-03-16T11:51:44.936Z,0.84
2018-03-16T11:54:12.604Z,0.79
2018-03-16T11:56:40.184Z,0.90
2018-03-16T11:59:08.680Z,0.85
2018-03-16T12:01:37.037Z,0.86
2018-03-16T12:04:05.383Z,0.93
2018-03-16T12:06:33.726Z,0.98
2018-03-16T12:09:02.105Z,0.94
2018-03-16T12:11:30.549Z,0.76
2018-03-16T12:13:58.171Z,0.78
2018-03-16T12:16:26.088Z,0.80
2018-03-16T12:18:53.720Z,0.87
2018-03-16T12:21:22.239Z,0.80
2018-03-16T12:23:50.610Z,0.81
2018-03-16T12:26:19.011Z,0.84
2018-03-16T12:28:49.951Z,0.86
2018-03-16T12:31:15.852Z,0.91
2018-03-16T12:33:44.132Z,0.85
2018-03-16T12:36:12.498Z,0.89
2018-03-16T12:38:40.736Z,0.86
2018-03-16T12:41:08.320Z,0.93
2018-03-16T12:43:36.728Z,0.85
2018-03-16T12:46:04.324Z,0.94
2018-03-16T12:48:31.908Z,0.89
2018-03-16T12:50:59.496Z,0.95
2018-03-16T12:53:27.106Z,1.03
2018-03-16T12:55:54.736Z,0.99
2018-03-16T12:58:23.204Z,1.10
2018-03-16T13:00:50.830Z,1.12
2018-03-16T13:03:18.417Z,1.13
2018-03-16T13:05:46.719Z,1.03
2018-03-16T13:08:15.087Z,1.18
2018-03-16T13:10:43.456Z,1.07
2018-03-16T13:13:11.042Z,1.10
2018-03-16T13:15:38.632Z,1.04
2018-03-16T13:18:06.220Z,1.07
2018-03-16T13:20:33.816Z,0.91
2018-03-16T13:23:01.430Z,0.96
2018-03-16T13:25:29.043Z,0.91
2018-03-16T13:27:56.668Z,0.77
2018-03-16T13:30:24.260Z,0.88
2018-03-16T13:32:51.858Z,0.88
2018-03-16T13:35:19.451Z,0.83
2018-03-16T13:37:47.743Z,0.91
2018-03-16T13:40:16.248Z,0.85
2018-03-16T13:42:44.853Z,0.80
2018-03-16T13:45:12.451Z,0.75
2018-03-16T13:47:40.960Z,0.72
2018-03-16T13:50:08.542Z,0.72
2018-03-16T13:52:36.859Z,0.79
2018-03-16T13:55:04.447Z,0.78
2018-03-16T13:57:32.077Z,0.77
2018-03-16T13:59:59.664Z,0.78
2018-03-16T14:02:27.262Z,0.71
2018-03-16T14:04:55.632Z,0.72
2018-03-16T14:07:23.213Z,0.55
2018-03-16T14:09:51.696Z,0.57
2018-03-16T14:12:20.179Z,0.65
2018-03-16T14:14:47.774Z,0.51
2018-03-16T14:17:15.401Z,0.55
2018-03-16T14:19:43.680Z,0.60
2018-03-16T14:22:11.298Z,0.59
2018-03-16T14:24:39.657Z,0.61
2018-03-16T14:27:08.195Z,0.62
2018-03-16T14:29:35.783Z,0.50
2018-03-16T14:32:04.260Z,0.57
2018-03-16T14:34:31.875Z,0.52
2018-03-16T14:37:00.173Z,0.61
2018-03-16T14:39:27.764Z,0.51
2018-03-16T14:41:55.361Z,0.57
2018-03-16T14:44:23.731Z,0.44
2018-03-16T14:46:51.355Z,0.42
2018-03-16T14:49:18.943Z,0.45
2018-03-16T14:51:47.310Z,0.42
2018-03-16T14:54:14.976Z,0.42
2018-03-16T14:56:43.427Z,0.32
2018-03-16T14:59:11.040Z,0.31
2018-03-16T15:01:38.630Z,0.14
2018-03-16T15:04:07.168Z,0.21
2018-03-16T15:06:35.474Z,0.29
2018-03-16T15:09:03.809Z,0.27
2018-03-16T15:11:32.103Z,0.23
2018-03-16T15:14:00.515Z,0.33
2018-03-16T15:16:28.103Z,0.26
2018-03-16T15:18:56.328Z,0.33
2018-03-16T15:21:23.955Z,0.18
2018-03-16T15:23:51.584Z,0.11
2018-03-16T15:26:19.183Z,0.21
2018-03-16T15:28:47.588Z,0.07
2018-03-16T15:31:15.235Z,0.07
2018-03-16T15:33:43.716Z,0.04
2018-03-16T15:36:11.359Z,0.05
2018-03-16T15:38:39.753Z,0.00
2018-03-16T15:41:07.790Z,0.10
2018-03-16T15:43:36.270Z,0.08
2018-03-16T15:46:03.896Z,0.15
2018-03-16T15:48:31.532Z,0.16
2018-03-16T15:50:59.939Z,0.11
2018-03-16T15:53:27.572Z,0.08
2018-03-16T15:55:55.990Z,0.13
2018-03-16T15:58:23.595Z,0.13
2018-03-16T16:00:51.194Z,0.09
2018-03-16T16:03:18.791Z,0.22
2018-03-16T16:05:46.377Z,0.27
2018-03-16T16:08:13.991Z,0.18
2018-03-16T16:10:41.571Z,0.19
2018-03-16T16:13:09.151Z,0.21
2018-03-16T16:15:36.743Z,0.21
2018-03-16T16:18:04.335Z,0.17
2018-03-16T16:20:31.923Z,0.08
2018-03-16T16:22:59.526Z,0.08
2018-03-16T16:25:27.116Z,0.10
2018-03-16T16:27:54.760Z,0.13
2018-03-16T16:30:22.347Z,0.05
2018-03-16T16:32:49.938Z,0.12
2018-03-16T16:35:17.559Z,0.05
2018-03-16T16:37:45.855Z,-0.05
2018-03-16T16:40:13.479Z,-0.09
2018-03-16T16:42:41.833Z,-0.12
2018-03-16T16:45:09.420Z,-0.10
2018-03-16T16:47:37.853Z,-0.24
2018-03-16T16:50:05.442Z,-0.15
2018-03-16T16:52:33.072Z,-0.15
2018-03-16T16:55:00.744Z,-0.19
2018-03-16T16:57:28.332Z,-0.26
2018-03-16T16:59:55.918Z,-0.27
2018-03-16T17:02:23.525Z,-0.43
2018-03-16T17:04:51.111Z,-0.44
2018-03-16T17:07:18.700Z,-0.39
2018-03-16T17:09:46.296Z,-0.41
2018-03-16T17:12:13.890Z,-0.52
2018-03-16T17:14:42.376Z,-0.58
2018-03-16T17:17:10.015Z,-0.61
2018-03-16T17:19:38.527Z,-0.62
2018-03-16T17:22:06.123Z,-0.62
2018-03-16T17:24:33.724Z,-0.58
2018-03-16T17:27:01.318Z,-0.63
2018-03-16T17:29:28.915Z,-0.69
2018-03-16T17:31:56.512Z,-0.62
2018-03-16T17:34:24.109Z,-0.62
2018-03-16T17:36:51.703Z,-0.62
2018-03-16T17:39:19.295Z,-0.64
2018-03-16T17:41:46.979Z,-0.56
2018-03-16T17:44:14.570Z,-0.63
2018-03-16T17:46:42.218Z,-0.78
2018-03-16T17:49:09.840Z,-0.81
2018-03-16T17:51:37.426Z,-0.80
2018-03-16T17:54:05.015Z,-0.80
2018-03-16T17:56:32.643Z,-0.83
2018-03-16T17:59:00.232Z,-0.80
2018-03-16T18:01:28.551Z,-0.79
2018-03-16T18:03:56.148Z,-0.81
2018-03-16T18:06:23.735Z,-0.96
2018-03-16T18:08:51.360Z,-0.95
2018-03-16T18:11:18.943Z,-0.96
2018-03-16T18:13:46.584Z,-0.92
2018-03-16T18:16:14.167Z,-0.92
2018-03-16T18:18:41.756Z,-0.95
2018-03-16T18:21:09.343Z,-1.06
2018-03-16T18:23:36.928Z,-1.07
2018-03-16T18:26:04.548Z,-1.13
2018-03-16T18:28:32.143Z,-0.95
2018-03-16T18:30:59.732Z,-0.99
2018-03-16T18:33:27.332Z,-0.92
2018-03-16T18:35:54.915Z,-0.93
2018-03-16T18:38:22.495Z,-0.89
2018-03-16T18:40:51.024Z,-0.88
2018-03-16T18:43:19.379Z,-0.87
2018-03-16T18:45:47.854Z,-0.94
2018-03-16T18:48:15.481Z,-0.96
2018-03-16T18:50:43.104Z,-0.87
2018-03-16T18:53:10.746Z,-0.90
2018-03-16T18:55:39.241Z,-0.85
2018-03-16T19:00:41.723Z,-0.86
2018-03-16T19:03:09.311Z,-0.87
2018-03-16T19:05:37.768Z,-0.80
2018-03-16T19:08:06.224Z,-0.88
2018-03-16T19:10:33.811Z,-0.90
2018-03-16T19:13:01.426Z,-0.84
2018-03-16T19:15:29.017Z,-0.84
2018-03-16T19:17:56.599Z,-0.84
2018-03-16T19:20:24.227Z,-0.77
2018-03-16T19:22:51.815Z,-0.82
2018-03-16T19:25:19.410Z,-0.80
2018-03-16T19:27:47.003Z,-0.77
2018-03-16T19:30:15.333Z,-0.76
2018-03-16T19:32:42.963Z,-0.84
2018-03-16T19:35:10.550Z,-0.80
2018-03-16T19:37:38.202Z,-0.78
2018-03-16T19:40:05.793Z,-0.78
2018-03-16T19:42:33.376Z,-0.89
2018-03-16T19:45:01.744Z,-0.89
2018-03-16T19:47:30.152Z,-0.85
2018-03-16T19:49:58.434Z,-0.85
2018-03-16T19:52:27.721Z,-0.89
2018-03-16T19:54:56.517Z,-0.90
2018-03-16T19:57:24.707Z,-1.02
2018-03-16T19:59:52.424Z,-1.03
2018-03-16T20:02:20.996Z,-1.03
2018-03-16T20:04:48.596Z,-0.99
2018-03-16T20:07:17.092Z,-0.99
2018-03-16T20:09:48.192Z,-1.03
2018-03-16T20:12:15.784Z,-1.05
2018-03-16T20:14:43.405Z,-1.05
2018-03-16T20:17:11.107Z,-1.06
2018-03-16T20:19:39.711Z,-1.09
2018-03-16T20:22:07.301Z,-1.04
2018-03-16T20:24:34.888Z,-1.06
2018-03-16T20:27:02.499Z,-1.15
2018-03-16T20:29:30.108Z,-1.17
2018-03-16T20:31:57.700Z,-1.22
2018-03-16T20:34:26.099Z,-1.22
2018-03-16T20:36:54.637Z,-1.16
2018-03-16T20:39:23.680Z,-1.20
2018-03-16T20:41:51.260Z,-1.23
2018-03-16T20:44:18.847Z,-1.14
2018-03-16T20:46:46.448Z,-1.19
2018-03-16T20:49:14.024Z,-1.25
2018-03-16T20:51:42.398Z,-1.23
2018-03-16T20:56:43.713Z,-1.30
2018-03-16T20:59:11.332Z,-1.34
2018-03-16T21:01:38.916Z,-1.46
2018-03-16T21:04:06.504Z,-1.48
2018-03-16T21:06:35.124Z,-1.45
2018-03-16T21:09:02.707Z,-1.36
2018-03-16T21:11:30.290Z,-1.33
2018-03-16T21:13:57.875Z,-1.37
2018-03-16T21:16:25.469Z,-1.37
2018-03-16T21:18:53.056Z,-1.39
2018-03-16T21:21:20.643Z,-1.49
2018-03-16T21:23:48.223Z,-1.47
2018-03-16T21:26:15.820Z,-1.42
2018-03-16T21:28:43.443Z,-1.43
2018-03-16T21:31:11.098Z,-1.51
2018-03-16T21:33:38.651Z,-1.51
2018-03-16T21:36:06.244Z,-1.52
2018-03-16T21:38:33.832Z,-1.51
2018-03-16T21:41:01.410Z,-1.49
2018-03-16T21:43:28.996Z,-1.56
2018-03-16T21:45:56.579Z,-1.54
2018-03-16T21:48:24.155Z,-1.60
2018-03-16T21:50:51.750Z,-1.60
2018-03-16T21:53:19.468Z,-1.62
2018-03-16T21:55:47.056Z,-1.65
2018-03-16T21:58:14.637Z,-1.57
2018-03-16T22:00:42.256Z,-1.50
2018-03-16T22:03:09.842Z,-1.48
2018-03-16T22:05:37.424Z,-1.53
2018-03-16T22:08:05.828Z,-1.57
2018-03-16T22:10:33.418Z,-1.59
2018-03-16T22:13:01.009Z,-1.54
2018-03-16T22:15:28.587Z,-1.67
2018-03-16T22:17:57.078Z,-1.60
2018-03-16T22:20:25.453Z,-1.54
2018-03-16T22:22:53.821Z,-1.56
2018-03-16T22:25:21.403Z,-1.54
2018-03-16T22:27:48.985Z,-1.54
2018-03-16T22:30:17.467Z,-1.56
2018-03-16T22:32:45.054Z,-1.62
2018-03-16T22:35:12.640Z,-1.67
2018-03-16T22:37:40.220Z,-1.71
2018-03-16T22:40:08.590Z,-1.80
2018-03-16T22:42:36.172Z,-1.77
2018-03-16T22:45:03.791Z,-1.74
2018-03-16T22:47:31.371Z,-1.75
2018-03-16T22:49:58.949Z,-1.74
2018-03-16T22:52:27.538Z,-1.71
2018-03-16T22:54:56.026Z,-1.73
2018-03-16T22:57:23.629Z,-1.74
2018-03-16T22:59:57.392Z,-1.70
2018-03-16T23:02:25.025Z,-1.81
2018-03-16T23:04:53.879Z,-1.72
2018-03-16T23:07:21.515Z,-1.81
2018-03-16T23:09:49.091Z,-1.84
2018-03-16T23:12:16.939Z,-1.78
2018-03-16T23:14:45.554Z,-1.70
2018-03-16T23:17:13.135Z,-1.75
2018-03-16T23:19:40.722Z,-1.77
2018-03-16T23:22:08.346Z,-1.79
2018-03-16T23:24:35.930Z,-1.92
2018-03-16T23:27:03.517Z,-2.00
2018-03-16T23:29:31.102Z,-2.04
2018-03-16T23:31:58.711Z,-1.99
2018-03-16T23:34:26.329Z,-2.06
2018-03-16T23:36:53.932Z,-2.04
2018-03-16T23:39:21.514Z,-2.14
2018-03-16T23:41:49.099Z,-2.05
2018-03-16T23:44:16.676Z,-2.05
2018-03-16T23:46:45.050Z,-2.12
2018-03-16T23:49:12.627Z,-2.07
2018-03-16T23:51:40.213Z,-2.06
2018-03-16T23:54:07.792Z,-2.04
2018-03-16T23:56:35.396Z,-2.10
2018-03-16T23:59:02.982Z,-2.08
